College Hill, Texas
Current Conditions -  °F | °C
As of 9:15 PM on Saturday 20 Dec 2014 (Local Time) from KOSA Reporting Station
Overcast Overcast  
Wind Chill: 48°   Ceiling: 3200
Heat Index: 48°   Visibility: 7mi
Dew Point: 44°   Wind: 3mph
Humidity: 88%   Direction: 80°E
Pressure: 30.22"   Gusts: NA
Location:  33.4703°N, 94.6281°W
Report Text: KOSA 210315Z AUTO 08003KT 7SM OVC032 09/07 A3022 RMK AO1 T00870068
Loading
Personal Weather Stations






























Interactive Weather Map New forecast layout! Learn more

10-Day Weather Forecast

Advertisements
Track Severe Weather on mobile